createdAt,value
2022-12-25T00:02:26.236Z,1.00
2022-12-25T00:07:30.136Z,1.60
2022-12-25T00:12:34.440Z,1.00
2022-12-25T00:17:37.207Z,1.00
2022-12-25T00:22:39.988Z,1.00
2022-12-25T00:27:44.229Z,1.00
2022-12-25T00:32:47.034Z,1.00
2022-12-25T00:37:49.993Z,1.00
2022-12-25T00:42:54.403Z,0.40
2022-12-25T00:47:57.419Z,1.00
2022-12-25T00:53:00.357Z,1.00
2022-12-25T00:58:04.493Z,1.00
2022-12-25T01:03:07.262Z,1.00
2022-12-25T01:08:10.042Z,1.00
2022-12-25T01:13:14.179Z,0.40
2022-12-25T01:18:17.118Z,1.00
2022-12-25T01:23:19.971Z,1.00
2022-12-25T01:28:24.082Z,0.00
2022-12-25T01:33:26.918Z,1.00
2022-12-25T01:38:29.679Z,1.00
2022-12-25T01:43:34.107Z,0.60
2022-12-25T01:48:37.994Z,0.40
2022-12-25T01:53:40.827Z,1.00
2022-12-25T01:58:45.037Z,1.00
2022-12-25T02:03:47.772Z,0.80
2022-12-25T02:08:50.668Z,0.80
2022-12-25T02:13:54.814Z,0.80
2022-12-25T02:18:58.980Z,1.00
2022-12-25T02:24:33.448Z,1.00
2022-12-25T02:29:43.738Z,0.40
2022-12-25T02:34:49.021Z,0.00
2022-12-25T02:40:00.591Z,0.00
2022-12-25T02:45:22.702Z,0.00
2022-12-25T02:50:43.234Z,0.00
2022-12-25T02:56:03.440Z,0.20
2022-12-25T03:01:27.508Z,0.00
2022-12-25T03:06:46.648Z,0.00
2022-12-25T03:11:51.660Z,0.00
2022-12-25T03:16:56.875Z,0.00
2022-12-25T03:22:17.190Z,0.00
2022-12-25T03:27:19.935Z,0.00
2022-12-25T03:32:28.314Z,1.00
2022-12-25T03:37:52.514Z,0.40
2022-12-25T03:43:14.693Z,0.20
2022-12-25T03:48:36.338Z,0.00
2022-12-25T03:53:58.975Z,0.20
2022-12-25T03:59:23.593Z,0.00
2022-12-25T04:04:45.490Z,0.00
2022-12-25T04:10:05.651Z,0.00
2022-12-25T04:15:27.576Z,0.00
2022-12-25T04:20:49.445Z,0.00
2022-12-25T04:26:09.703Z,0.00
2022-12-25T04:31:30.027Z,0.00
2022-12-25T04:36:34.202Z,0.00
2022-12-25T04:41:37.019Z,0.00
2022-12-25T04:46:39.862Z,0.00
2022-12-25T04:51:44.115Z,0.00
2022-12-25T04:56:46.873Z,0.00
2022-12-25T05:01:49.755Z,0.00
2022-12-25T05:06:53.976Z,0.00
2022-12-25T05:11:56.711Z,0.00
2022-12-25T05:16:59.454Z,0.60
2022-12-25T05:22:03.609Z,0.00
2022-12-25T05:27:06.372Z,0.00
2022-12-25T05:32:09.143Z,0.20
2022-12-25T05:37:13.527Z,0.00
2022-12-25T05:42:16.488Z,0.00
2022-12-25T05:47:19.275Z,0.00
2022-12-25T05:52:23.493Z,0.00
2022-12-25T05:57:26.335Z,0.80
2022-12-25T06:02:29.356Z,0.00
2022-12-25T06:07:33.670Z,0.00
2022-12-25T06:12:36.506Z,0.00
2022-12-25T06:17:39.290Z,0.00
2022-12-25T06:22:43.503Z,0.00
2022-12-25T06:27:46.331Z,0.00
2022-12-25T06:32:49.082Z,0.00
2022-12-25T06:37:53.194Z,0.00
2022-12-25T06:42:56.213Z,0.00
2022-12-25T06:47:59.057Z,0.00
2022-12-25T06:53:03.215Z,0.00
2022-12-25T06:58:06.045Z,0.00
2022-12-25T07:03:08.876Z,0.00
2022-12-25T07:08:13.049Z,0.00
2022-12-25T07:13:15.985Z,0.00
2022-12-25T07:18:18.837Z,0.00
2022-12-25T07:23:23.088Z,0.00
2022-12-25T07:28:25.975Z,0.00
2022-12-25T07:33:28.773Z,0.00
2022-12-25T07:38:32.988Z,0.00
2022-12-25T07:43:35.721Z,0.00
2022-12-25T07:48:38.628Z,0.00
2022-12-25T07:53:43.043Z,0.00
2022-12-25T07:58:45.977Z,0.60
2022-12-25T08:03:52.241Z,3.80
2022-12-25T08:08:56.496Z,5.00
2022-12-25T08:13:59.241Z,4.40
2022-12-25T08:19:02.065Z,5.00
2022-12-25T08:24:06.839Z,4.00
2022-12-25T08:29:09.674Z,4.40
2022-12-25T08:34:12.639Z,4.00
2022-12-25T08:39:16.866Z,4.00
2022-12-25T08:44:19.846Z,4.60
2022-12-25T08:49:22.693Z,4.00
2022-12-25T08:54:27.098Z,4.00
2022-12-25T08:59:29.858Z,3.20
2022-12-25T09:04:32.684Z,4.00
2022-12-25T09:09:37.017Z,4.00
2022-12-25T09:14:39.844Z,4.00
2022-12-25T09:19:42.673Z,4.00
2022-12-25T09:24:46.927Z,4.00
2022-12-25T09:29:50.287Z,4.00
2022-12-25T09:34:53.051Z,4.00
2022-12-25T09:39:57.176Z,4.00
2022-12-25T09:45:01.824Z,2.00
2022-12-25T09:50:07.994Z,2.00
2022-12-25T09:55:19.783Z,4.00
2022-12-25T10:00:23.961Z,2.00
2022-12-25T10:05:35.729Z,1.60
2022-12-25T10:10:51.903Z,2.00
2022-12-25T10:15:59.142Z,2.40
2022-12-25T10:21:03.954Z,2.00
2022-12-25T10:26:15.446Z,2.00
2022-12-25T10:31:21.959Z,4.00
2022-12-25T10:36:25.595Z,2.00
2022-12-25T10:41:40.963Z,2.00
2022-12-25T10:46:43.957Z,2.00
2022-12-25T10:51:46.832Z,2.00
2022-12-25T10:56:58.845Z,2.00
2022-12-25T11:02:05.679Z,2.00
2022-12-25T11:07:09.678Z,2.00
2022-12-25T11:12:18.301Z,1.60
2022-12-25T11:17:23.066Z,1.00
2022-12-25T11:22:26.434Z,2.00
2022-12-25T11:27:33.593Z,2.00
2022-12-25T11:32:39.022Z,2.00
2022-12-25T11:37:43.669Z,1.00
2022-12-25T11:42:49.503Z,1.20
2022-12-25T11:47:53.115Z,1.00
2022-12-25T11:52:56.003Z,1.00
2022-12-25T11:58:02.435Z,2.00
2022-12-25T12:03:07.980Z,1.20
2022-12-25T12:08:11.010Z,6.00
2022-12-25T12:13:27.072Z,6.00
2022-12-25T12:18:31.220Z,10.20
2022-12-25T12:23:36.078Z,11.00
2022-12-25T12:28:44.235Z,24.75
2022-12-25T12:33:51.827Z,30.00
2022-12-25T12:38:54.910Z,30.33
2022-12-25T12:43:59.441Z,28.00
2022-12-25T12:49:09.659Z,23.00
2022-12-25T12:54:20.779Z,22.00
2022-12-25T12:59:25.144Z,15.00
2022-12-25T13:04:35.317Z,16.00
2022-12-25T13:09:46.568Z,14.00
2022-12-25T13:14:50.947Z,11.00
2022-12-25T13:19:56.375Z,11.20
2022-12-25T13:25:00.356Z,11.00
2022-12-25T13:30:14.838Z,12.00
2022-12-25T13:35:17.723Z,11.00
2022-12-25T13:40:22.740Z,14.20
2022-12-25T13:45:27.923Z,11.20
2022-12-25T13:50:31.646Z,10.00
2022-12-25T13:55:34.447Z,9.20
2022-12-25T14:00:39.554Z,10.60
2022-12-25T14:05:43.669Z,10.00
2022-12-25T14:10:48.212Z,8.80
2022-12-25T14:15:53.300Z,9.60
2022-12-25T14:20:59.048Z,6.60
2022-12-25T14:26:01.851Z,6.80
2022-12-25T14:31:06.402Z,6.00
2022-12-25T14:36:10.681Z,7.00
2022-12-25T14:41:25.896Z,6.00
2022-12-25T14:46:32.370Z,6.00
2022-12-25T14:51:36.332Z,7.00
2022-12-25T14:56:40.052Z,6.20
2022-12-25T15:01:44.701Z,6.60
2022-12-25T15:06:53.969Z,6.00
2022-12-25T15:11:57.167Z,6.00
2022-12-25T15:17:01.818Z,5.60
2022-12-25T15:22:04.836Z,6.60
2022-12-25T15:27:10.443Z,6.00
2022-12-25T15:32:17.497Z,7.00
2022-12-25T15:37:20.341Z,8.40
2022-12-25T15:42:24.023Z,9.00
2022-12-25T15:47:28.208Z,9.00
2022-12-25T15:52:31.146Z,9.00
2022-12-25T15:57:35.078Z,8.20
2022-12-25T16:02:39.429Z,10.00
2022-12-25T16:07:42.436Z,13.00
2022-12-25T16:12:45.391Z,11.00
2022-12-25T16:17:49.506Z,10.80
2022-12-25T16:22:52.263Z,15.20
2022-12-25T16:27:55.037Z,14.00
2022-12-25T16:32:59.244Z,14.20
2022-12-25T16:38:02.041Z,13.80
2022-12-25T16:43:04.819Z,25.00
2022-12-25T16:48:09.224Z,17.60
2022-12-25T16:53:12.484Z,18.80
2022-12-25T16:58:15.226Z,16.60
2022-12-25T17:03:19.541Z,18.25
2022-12-25T17:08:22.542Z,22.50
2022-12-25T17:13:25.321Z,23.50
2022-12-25T17:18:29.593Z,23.00
2022-12-25T17:23:32.577Z,20.00
2022-12-25T17:28:35.571Z,20.75
2022-12-25T17:33:40.176Z,20.75
2022-12-25T17:38:49.273Z,19.50
2022-12-25T17:43:52.058Z,20.75
2022-12-25T17:48:56.734Z,17.75
2022-12-25T17:54:00.709Z,17.60
2022-12-25T17:59:06.614Z,18.75
2022-12-25T18:04:11.053Z,17.80
2022-12-25T18:09:13.935Z,20.00
2022-12-25T18:14:17.011Z,17.00
2022-12-25T18:19:21.555Z,18.00
2022-12-25T18:24:24.384Z,17.60
2022-12-25T18:29:27.386Z,15.00
2022-12-25T18:34:31.785Z,16.40
2022-12-25T18:39:34.573Z,15.80
2022-12-25T18:44:37.523Z,14.60
2022-12-25T18:49:41.616Z,14.00
2022-12-25T18:54:44.581Z,14.00
2022-12-25T18:59:47.564Z,13.00
2022-12-25T19:04:52.628Z,13.60
2022-12-25T19:09:55.756Z,10.20
2022-12-25T19:14:59.030Z,13.00
2022-12-25T19:20:03.428Z,10.00
2022-12-25T19:25:07.378Z,11.20
2022-12-25T19:30:11.602Z,10.20
2022-12-25T19:35:15.878Z,10.00
2022-12-25T19:40:18.880Z,10.20
2022-12-25T19:45:21.817Z,9.00
2022-12-25T19:50:28.411Z,9.80
2022-12-25T19:55:32.840Z,7.20
2022-12-25T20:00:35.701Z,9.80
2022-12-25T20:05:39.862Z,9.00
2022-12-25T20:10:44.348Z,6.80
2022-12-25T20:15:47.128Z,7.00
2022-12-25T20:20:51.266Z,7.40
2022-12-25T20:25:54.085Z,7.00
2022-12-25T20:30:57.195Z,7.00
2022-12-25T20:36:01.821Z,7.00
2022-12-25T20:46:29.331Z,6.20
2022-12-25T20:51:33.671Z,8.80
2022-12-25T20:56:36.680Z,6.00
2022-12-25T21:01:39.852Z,5.00
2022-12-25T21:06:44.065Z,6.60
2022-12-25T21:11:47.148Z,6.00
2022-12-25T21:16:50.286Z,6.00
2022-12-25T21:21:54.810Z,6.00
2022-12-25T21:26:57.764Z,6.00
2022-12-25T21:32:17.950Z,6.00
2022-12-25T21:37:23.135Z,3.80
2022-12-25T21:42:25.905Z,4.60
2022-12-25T21:47:59.784Z,6.40
2022-12-25T21:52:52.964Z,5.00
2022-12-25T21:57:55.951Z,5.40
2022-12-25T22:02:58.924Z,4.60
2022-12-25T22:08:03.319Z,5.00
2022-12-25T22:13:23.518Z,5.00
2022-12-25T22:18:44.041Z,3.80
2022-12-25T22:23:48.280Z,5.00
2022-12-25T22:28:51.038Z,5.00
2022-12-25T22:33:53.852Z,5.20
2022-12-25T22:38:58.030Z,5.00
2022-12-25T22:44:17.883Z,5.00
2022-12-25T22:49:21.267Z,7.00
2022-12-25T22:54:25.501Z,7.00
2022-12-25T22:59:28.292Z,7.60
2022-12-25T23:04:31.165Z,7.60
2022-12-25T23:09:35.337Z,10.00
2022-12-25T23:14:41.599Z,9.60
2022-12-25T23:20:01.991Z,8.00
2022-12-25T23:25:28.773Z,10.40
2022-12-25T23:30:33.307Z,10.20
2022-12-25T23:35:36.206Z,10.20
2022-12-25T23:40:40.338Z,10.20
2022-12-25T23:45:43.115Z,13.00
2022-12-25T23:50:45.877Z,17.25
2022-12-25T23:55:55.277Z,21.50
